Herenthout, Belgium
Current Conditions -  °F | °C
As of 11:20 AM on Thursday 23 Oct 2014 (Local Time) from EBAW Reporting Station
Few Clouds Few Clouds  
Wind Chill: 54°   Ceiling: Unl
Heat Index: 54°   Visibility: 6mi
Dew Point: 48°   Wind: 9mph
Humidity: 82%   Direction: 220°SW
Pressure: 30.21"   Gusts: NA
Location:  51.14°N, 4.76°E
Report Text: EBAW 230920Z 22008KT 9999 FEW040 12/09 Q1023 NOSIG
Loading
Personal Weather Stations






























Interactive Weather Map
Tropical Storm Tracking
New forecast layout! Learn more

10-Day Weather Forecast

Advertisements
Track Severe Weather on mobile